Aviation Digital Data Service (ADDS)

Output produced by METARs form (1851 UTC 19 April 2019)
found at http://www.aviationweather.gov/metar/data/
 
METAR text: KBHM 191826Z 27012G18KT 5SM -RA FEW010 BKN015 OVC038 12/09 A2961 RMK AO2 RAB23 P0000 T01220089
Conditions at: KBHM (BIRMINGHAM , AL, US) observed 1826 UTC 19 April 2019
Temperature: 12.2°C (54°F)
Dewpoint: 8.9°C (48°F) [RH = 80%]
Pressure (altimeter): 29.61 inches Hg (1002.8 mb)
Winds: from the W (270 degrees) at 14 MPH (12 knots; 6.2 m/s)
gusting to 21 MPH (18 knots; 9.3 m/s)
Visibility: 5 miles ( 8 km)
Ceiling: 1500 feet AGL
Clouds: few clouds at 1000 feet AGL
broken clouds at 1500 feet AGL
overcast cloud deck at 3800 feet AGL
Weather: -RA  (light rain)

METAR text: KBHM 191815Z 28013G19KT 10SM FEW012 OVC036 12/09 A2960 RMK AO2 T01220089
Conditions at: KBHM (BIRMINGHAM , AL, US) observed 1815 UTC 19 April 2019
Temperature: 12.2°C (54°F)
Dewpoint: 8.9°C (48°F) [RH = 80%]
Pressure (altimeter): 29.60 inches Hg (1002.5 mb)
Winds: from the W (280 degrees) at 15 MPH (13 knots; 6.7 m/s)
gusting to 22 MPH (19 knots; 9.8 m/s)
Visibility: 10 or more miles (16+ km)
Ceiling: 3600 feet AGL
Clouds: few clouds at 1200 feet AGL
overcast cloud deck at 3600 feet AGL
Weather: no significant weather observed at this time

METAR text: KBHM 191808Z 27014G21KT 8SM SCT015 BKN024 OVC033 12/09 A2961 RMK AO2 T01170089
Conditions at: KBHM (BIRMINGHAM , AL, US) observed 1808 UTC 19 April 2019
Temperature: 11.7°C (53°F)
Dewpoint: 8.9°C (48°F) [RH = 83%]
Pressure (altimeter): 29.61 inches Hg (1002.8 mb)
Winds: from the W (270 degrees) at 16 MPH (14 knots; 7.2 m/s)
gusting to 24 MPH (21 knots; 10.8 m/s)
Visibility: 8 miles (13 km)
Ceiling: 2400 feet AGL
Clouds: scattered clouds at 1500 feet AGL
broken clouds at 2400 feet AGL
overcast cloud deck at 3300 feet AGL
Weather: no significant weather observed at this time

METAR text: KBHM 191753Z 27013KT 7SM FEW015 OVC034 12/09 A2960 RMK AO2 RAB09E31B42E52 SLP021 P0000 60000 T01220094 10161 20117 50005
Conditions at: KBHM (BIRMINGHAM , AL, US) observed 1753 UTC 19 April 2019
Temperature: 12.2°C (54°F)
Dewpoint: 9.4°C (49°F) [RH = 83%]
Pressure (altimeter): 29.60 inches Hg (1002.5 mb)
[Sea-level pressure: 1002.1 mb]
Winds: from the W (270 degrees) at 15 MPH (13 knots; 6.7 m/s)
Visibility: 7 miles (11 km)
Ceiling: 3400 feet AGL
Clouds: few clouds at 1500 feet AGL
overcast cloud deck at 3400 feet AGL
Weather: no significant weather observed at this time

METAR text: KBHM 191736Z 28011G19KT 10SM FEW013 SCT019 OVC032 13/09 A2961 RMK AO2 RAB09E31 P0000 T01280094
Conditions at: KBHM (BIRMINGHAM , AL, US) observed 1736 UTC 19 April 2019
Temperature: 12.8°C (55°F)
Dewpoint: 9.4°C (49°F) [RH = 80%]
Pressure (altimeter): 29.61 inches Hg (1002.8 mb)
Winds: from the W (280 degrees) at 13 MPH (11 knots; 5.7 m/s)
gusting to 22 MPH (19 knots; 9.8 m/s)
Visibility: 10 or more miles (16+ km)
Ceiling: 3200 feet AGL
Clouds: few clouds at 1300 feet AGL
scattered clouds at 1900 feet AGL
overcast cloud deck at 3200 feet AGL
Weather: no significant weather observed at this time

METAR text: KBHM 191708Z 28013KT 10SM BKN015 OVC022 12/09 A2961 RMK AO2 T01220089
Conditions at: KBHM (BIRMINGHAM , AL, US) observed 1708 UTC 19 April 2019
Temperature: 12.2°C (54°F)
Dewpoint: 8.9°C (48°F) [RH = 80%]
Pressure (altimeter): 29.61 inches Hg (1002.8 mb)
Winds: from the W (280 degrees) at 15 MPH (13 knots; 6.7 m/s)
Visibility: 10 or more miles (16+ km)
Ceiling: 1500 feet AGL
Clouds: broken clouds at 1500 feet AGL
overcast cloud deck at 2200 feet AGL
Weather: no significant weather observed at this time

METAR text: KBHM 191653Z 27013KT 7SM BKN013 BKN021 OVC025 12/09 A2961 RMK AO2 RAB07E26 SLP022 P0000 T01220094
Conditions at: KBHM (BIRMINGHAM , AL, US) observed 1653 UTC 19 April 2019
Temperature: 12.2°C (54°F)
Dewpoint: 9.4°C (49°F) [RH = 83%]
Pressure (altimeter): 29.61 inches Hg (1002.8 mb)
[Sea-level pressure: 1002.2 mb]
Winds: from the W (270 degrees) at 15 MPH (13 knots; 6.7 m/s)
Visibility: 7 miles (11 km)
Ceiling: 1300 feet AGL
Clouds: broken clouds at 1300 feet AGL
broken clouds at 2100 feet AGL
overcast cloud deck at 2500 feet AGL
Weather: no significant weather observed at this time

METAR text: KBHM 191626Z 29013G21KT 7SM BKN012 BKN020 OVC034 12/10 A2961 RMK AO2 RAB07E26 P0000 T01220100
Conditions at: KBHM (BIRMINGHAM , AL, US) observed 1626 UTC 19 April 2019
Temperature: 12.2°C (54°F)
Dewpoint: 10.0°C (50°F) [RH = 86%]
Pressure (altimeter): 29.61 inches Hg (1002.8 mb)
Winds: from the WNW (290 degrees) at 15 MPH (13 knots; 6.7 m/s)
gusting to 24 MPH (21 knots; 10.8 m/s)
Visibility: 7 miles (11 km)
Ceiling: 1200 feet AGL
Clouds: broken clouds at 1200 feet AGL
broken clouds at 2000 feet AGL
overcast cloud deck at 3400 feet AGL
Weather: no significant weather observed at this time

METAR text: KBHM 191553Z 28016G21KT 6SM BR SCT009 SCT015 OVC026 12/10 A2961 RMK AO2 RAB41E51 SLP023 P0000 T01170100
Conditions at: KBHM (BIRMINGHAM , AL, US) observed 1553 UTC 19 April 2019
Temperature: 11.7°C (53°F)
Dewpoint: 10.0°C (50°F) [RH = 89%]
Pressure (altimeter): 29.61 inches Hg (1002.8 mb)
[Sea-level pressure: 1002.3 mb]
Winds: from the W (280 degrees) at 18 MPH (16 knots; 8.2 m/s)
gusting to 24 MPH (21 knots; 10.8 m/s)
Visibility: 6 miles (10 km)
Ceiling: 2600 feet AGL
Clouds: scattered clouds at 900 feet AGL
scattered clouds at 1500 feet AGL
overcast cloud deck at 2600 feet AGL
Weather: BR  (mist)

METAR text: KBHM 191545Z 27014G19KT 6SM -RA BR BKN010 BKN017 OVC024 12/10 A2961 RMK AO2 RAB41 P0000 T01170100
Conditions at: KBHM (BIRMINGHAM , AL, US) observed 1545 UTC 19 April 2019
Temperature: 11.7°C (53°F)
Dewpoint: 10.0°C (50°F) [RH = 89%]
Pressure (altimeter): 29.61 inches Hg (1002.8 mb)
Winds: from the W (270 degrees) at 16 MPH (14 knots; 7.2 m/s)
gusting to 22 MPH (19 knots; 9.8 m/s)
Visibility: 6 miles (10 km)
Ceiling: 1000 feet AGL
Clouds: broken clouds at 1000 feet AGL
broken clouds at 1700 feet AGL
overcast cloud deck at 2400 feet AGL
Weather: -RA BR  (light rain, mist)

METAR text: KBHM 191533Z 28011KT 6SM BR SCT010 BKN024 OVC033 12/10 A2961 RMK AO2 T01170100
Conditions at: KBHM (BIRMINGHAM , AL, US) observed 1533 UTC 19 April 2019
Temperature: 11.7°C (53°F)
Dewpoint: 10.0°C (50°F) [RH = 89%]
Pressure (altimeter): 29.61 inches Hg (1002.8 mb)
Winds: from the W (280 degrees) at 13 MPH (11 knots; 5.7 m/s)
Visibility: 6 miles (10 km)
Ceiling: 2400 feet AGL
Clouds: scattered clouds at 1000 feet AGL
broken clouds at 2400 feet AGL
overcast cloud deck at 3300 feet AGL
Weather: BR  (mist)

METAR text: KBHM 191453Z 28009KT 6SM BR BKN009 OVC016 12/11 A2959 RMK AO2 SLP016 60000 T01220111 53012
Conditions at: KBHM (BIRMINGHAM , AL, US) observed 1453 UTC 19 April 2019
Temperature: 12.2°C (54°F)
Dewpoint: 11.1°C (52°F) [RH = 93%]
Pressure (altimeter): 29.59 inches Hg (1002.1 mb)
[Sea-level pressure: 1001.6 mb]
Winds: from the W (280 degrees) at 10 MPH (9 knots; 4.6 m/s)
Visibility: 6 miles (10 km)
Ceiling: 900 feet AGL
Clouds: broken clouds at 900 feet AGL
overcast cloud deck at 1600 feet AGL
Weather: BR  (mist)

METAR text: KBHM 191353Z 27012KT 6SM BR BKN006 OVC012 13/12 A2956 RMK AO2 RAE00B25E38 SLP007 P0000 T01280117
Conditions at: KBHM (BIRMINGHAM , AL, US) observed 1353 UTC 19 April 2019
Temperature: 12.8°C (55°F)
Dewpoint: 11.7°C (53°F) [RH = 93%]
Pressure (altimeter): 29.56 inches Hg (1001.1 mb)
[Sea-level pressure: 1000.7 mb]
Winds: from the W (270 degrees) at 14 MPH (12 knots; 6.2 m/s)
Visibility: 6 miles (10 km)
Ceiling: 600 feet AGL
Clouds: broken clouds at 600 feet AGL
overcast cloud deck at 1200 feet AGL
Weather: BR  (mist)

METAR text: KBHM 191343Z 26012KT 6SM BR BKN005 OVC013 13/12 A2956 RMK AO2 RAE00B25E38 CIG 004V009 P0000 T01280117
Conditions at: KBHM (BIRMINGHAM , AL, US) observed 1343 UTC 19 April 2019
Temperature: 12.8°C (55°F)
Dewpoint: 11.7°C (53°F) [RH = 93%]
Pressure (altimeter): 29.56 inches Hg (1001.1 mb)
Winds: from the W (260 degrees) at 14 MPH (12 knots; 6.2 m/s)
Visibility: 6 miles (10 km)
Ceiling: 500 feet AGL
Clouds: broken clouds at 500 feet AGL
overcast cloud deck at 1300 feet AGL
Weather: BR  (mist)

METAR text: KBHM 191336Z 24011KT 2 1/2SM -RA BR BKN005 OVC012 13/12 A2956 RMK AO2 RAE00B25 CIG 004V007 P0000 T01330122
Conditions at: KBHM (BIRMINGHAM , AL, US) observed 1336 UTC 19 April 2019
Temperature: 13.3°C (56°F)
Dewpoint: 12.2°C (54°F) [RH = 93%]
Pressure (altimeter): 29.56 inches Hg (1001.1 mb)
Winds: from the WSW (240 degrees) at 13 MPH (11 knots; 5.7 m/s)
Visibility: 2.50 miles (4.02 km)
Ceiling: 500 feet AGL
Clouds: broken clouds at 500 feet AGL
overcast cloud deck at 1200 feet AGL
Weather: -RA BR  (light rain, mist)

METAR text: KBHM 191304Z 27013KT 6SM BR OVC008 14/13 A2956 RMK AO2 RAE00 CIG 006V012 P0000 T01390128
Conditions at: KBHM (BIRMINGHAM , AL, US) observed 1304 UTC 19 April 2019
Temperature: 13.9°C (57°F)
Dewpoint: 12.8°C (55°F) [RH = 93%]
Pressure (altimeter): 29.56 inches Hg (1001.1 mb)
Winds: from the W (270 degrees) at 15 MPH (13 knots; 6.7 m/s)
Visibility: 6 miles (10 km)
Ceiling: 800 feet AGL
Clouds: overcast cloud deck at 800 feet AGL
Weather: BR  (mist)

METAR text: KBHM 191253Z 27016G22KT 8SM -RA BKN010 BKN015 OVC020 15/13 A2956 RMK AO2 RAB43 CIG 006V012 SLP004 P0000 T01500133
Conditions at: KBHM (BIRMINGHAM , AL, US) observed 1253 UTC 19 April 2019
Temperature: 15.0°C (59°F)
Dewpoint: 13.3°C (56°F) [RH = 90%]
Pressure (altimeter): 29.56 inches Hg (1001.1 mb)
[Sea-level pressure: 1000.4 mb]
Winds: from the W (270 degrees) at 18 MPH (16 knots; 8.2 m/s)
gusting to 25 MPH (22 knots; 11.3 m/s)
Visibility: 8 miles (13 km)
Ceiling: 1000 feet AGL
Clouds: broken clouds at 1000 feet AGL
broken clouds at 1500 feet AGL
overcast cloud deck at 2000 feet AGL
Weather: -RA  (light rain)

METAR text: KBHM 191201Z 24005KT 10SM BKN012 OVC034 16/14 A2955 RMK AO2 T01610139
Conditions at: KBHM (BIRMINGHAM , AL, US) observed 1201 UTC 19 April 2019
Temperature: 16.1°C (61°F)
Dewpoint: 13.9°C (57°F) [RH = 87%]
Pressure (altimeter): 29.55 inches Hg (1000.8 mb)
Winds: from the WSW (240 degrees) at 6 MPH (5 knots; 2.6 m/s)
Visibility: 10 or more miles (16+ km)
Ceiling: 1200 feet AGL
Clouds: broken clouds at 1200 feet AGL
overcast cloud deck at 3400 feet AGL
Weather: no significant weather observed at this time

METAR text: KBHM 191153Z 24005KT 7SM FEW010 SCT014 OVC034 16/14 A2955 RMK AO2 SLP001 60001 70168 T01560144 10172 20156 53001
Conditions at: KBHM (BIRMINGHAM , AL, US) observed 1153 UTC 19 April 2019
Temperature: 15.6°C (60°F)
Dewpoint: 14.4°C (58°F) [RH = 93%]
Pressure (altimeter): 29.55 inches Hg (1000.8 mb)
[Sea-level pressure: 1000.1 mb]
Winds: from the WSW (240 degrees) at 6 MPH (5 knots; 2.6 m/s)
Visibility: 7 miles (11 km)
Ceiling: 3400 feet AGL
Clouds: few clouds at 1000 feet AGL
scattered clouds at 1400 feet AGL
overcast cloud deck at 3400 feet AGL
Weather: no significant weather observed at this time

METAR text: KBHM 191113Z 26006KT 7SM SCT010 BKN025 OVC036 16/14 A2954 RMK AO2 T01610144
Conditions at: KBHM (BIRMINGHAM , AL, US) observed 1113 UTC 19 April 2019
Temperature: 16.1°C (61°F)
Dewpoint: 14.4°C (58°F) [RH = 90%]
Pressure (altimeter): 29.54 inches Hg (1000.4 mb)
Winds: from the W (260 degrees) at 7 MPH (6 knots; 3.1 m/s)
Visibility: 7 miles (11 km)
Ceiling: 2500 feet AGL
Clouds: scattered clouds at 1000 feet AGL
broken clouds at 2500 feet AGL
overcast cloud deck at 3600 feet AGL
Weather: no significant weather observed at this time

METAR text: KBHM 191101Z 26008KT 6SM BR BKN010 BKN030 OVC036 16/14 A2954 RMK AO2 CIG 007V015 T01610144
Conditions at: KBHM (BIRMINGHAM , AL, US) observed 1101 UTC 19 April 2019
Temperature: 16.1°C (61°F)
Dewpoint: 14.4°C (58°F) [RH = 90%]
Pressure (altimeter): 29.54 inches Hg (1000.4 mb)
Winds: from the W (260 degrees) at 9 MPH (8 knots; 4.1 m/s)
Visibility: 6 miles (10 km)
Ceiling: 1000 feet AGL
Clouds: broken clouds at 1000 feet AGL
broken clouds at 3000 feet AGL
overcast cloud deck at 3600 feet AGL
Weather: BR  (mist)

METAR text: KBHM 191053Z 24007KT 10SM BKN009 OVC033 16/15 A2954 RMK AO2 CIG 007V015 SLP996 T01610150
Conditions at: KBHM (BIRMINGHAM , AL, US) observed 1053 UTC 19 April 2019
Temperature: 16.1°C (61°F)
Dewpoint: 15.0°C (59°F) [RH = 93%]
Pressure (altimeter): 29.54 inches Hg (1000.4 mb)
[Sea-level pressure:  999.6 mb]
Winds: from the WSW (240 degrees) at 8 MPH (7 knots; 3.6 m/s)
Visibility: 10 or more miles (16+ km)
Ceiling: 900 feet AGL
Clouds: broken clouds at 900 feet AGL
overcast cloud deck at 3300 feet AGL
Weather: no significant weather observed at this time

METAR text: KBHM 191041Z 26007KT 10SM BKN009 OVC032 16/15 A2953 RMK AO2 CIG 007V013 T01610150
Conditions at: KBHM (BIRMINGHAM , AL, US) observed 1041 UTC 19 April 2019
Temperature: 16.1°C (61°F)
Dewpoint: 15.0°C (59°F) [RH = 93%]
Pressure (altimeter): 29.53 inches Hg (1000.1 mb)
Winds: from the W (260 degrees) at 8 MPH (7 knots; 3.6 m/s)
Visibility: 10 or more miles (16+ km)
Ceiling: 900 feet AGL
Clouds: broken clouds at 900 feet AGL
overcast cloud deck at 3200 feet AGL
Weather: no significant weather observed at this time

METAR text: KBHM 190953Z 25011KT 10SM OVC012 17/16 A2954 RMK AO2 RAE00 SLP996 P0000 T01670156
Conditions at: KBHM (BIRMINGHAM , AL, US) observed 0953 UTC 19 April 2019
Temperature: 16.7°C (62°F)
Dewpoint: 15.6°C (60°F) [RH = 93%]
Pressure (altimeter): 29.54 inches Hg (1000.4 mb)
[Sea-level pressure:  999.6 mb]
Winds: from the WSW (250 degrees) at 13 MPH (11 knots; 5.7 m/s)
Visibility: 10 or more miles (16+ km)
Ceiling: 1200 feet AGL
Clouds: overcast cloud deck at 1200 feet AGL
Weather: no significant weather observed at this time

METAR text: KBHM 190900Z 27008KT 6SM BR SCT009 BKN015 OVC020 17/16 A2954 RMK AO2 RAE00 P0000 T01670156
Conditions at: KBHM (BIRMINGHAM , AL, US) observed 0900 UTC 19 April 2019
Temperature: 16.7°C (62°F)
Dewpoint: 15.6°C (60°F) [RH = 93%]
Pressure (altimeter): 29.54 inches Hg (1000.4 mb)
Winds: from the W (270 degrees) at 9 MPH (8 knots; 4.1 m/s)
Visibility: 6 miles (10 km)
Ceiling: 1500 feet AGL
Clouds: scattered clouds at 900 feet AGL
broken clouds at 1500 feet AGL
overcast cloud deck at 2000 feet AGL
Weather: BR  (mist)

METAR text: KBHM 190853Z 26008KT 10SM -RA BKN015 BKN019 17/16 A2955 RMK AO2 RAB51 SLP999 P0000 60001 T01720161 56023
Conditions at: KBHM (BIRMINGHAM , AL, US) observed 0853 UTC 19 April 2019
Temperature: 17.2°C (63°F)
Dewpoint: 16.1°C (61°F) [RH = 93%]
Pressure (altimeter): 29.55 inches Hg (1000.8 mb)
[Sea-level pressure:  999.9 mb]
Winds: from the W (260 degrees) at 9 MPH (8 knots; 4.1 m/s)
Visibility: 10 or more miles (16+ km)
Ceiling: 1500 feet AGL
Clouds: broken clouds at 1500 feet AGL
broken clouds at 1900 feet AGL
Weather: -RA  (light rain)

METAR text: KBHM 190836Z 24004KT 10SM BKN019 BKN110 17/16 A2954 RMK AO2 T01720161
Conditions at: KBHM (BIRMINGHAM , AL, US) observed 0836 UTC 19 April 2019
Temperature: 17.2°C (63°F)
Dewpoint: 16.1°C (61°F) [RH = 93%]
Pressure (altimeter): 29.54 inches Hg (1000.4 mb)
Winds: from the WSW (240 degrees) at 5 MPH (4 knots; 2.1 m/s)
Visibility: 10 or more miles (16+ km)
Ceiling: 1900 feet AGL
Clouds: broken clouds at 1900 feet AGL
broken clouds at 11000 feet AGL
Weather: no significant weather observed at this time

METAR text: KBHM 190753Z 10003KT 10SM BKN050 BKN080 OVC110 17/16 A2956 RMK AO2 RAB0658E09 SLP002 P0000 T01720161
Conditions at: KBHM (BIRMINGHAM , AL, US) observed 0753 UTC 19 April 2019
Temperature: 17.2°C (63°F)
Dewpoint: 16.1°C (61°F) [RH = 93%]
Pressure (altimeter): 29.56 inches Hg (1001.1 mb)
[Sea-level pressure: 1000.2 mb]
Winds: from the E (100 degrees) at 3 MPH (3 knots; 1.5 m/s)
Visibility: 10 or more miles (16+ km)
Ceiling: 5000 feet AGL
Clouds: broken clouds at 5000 feet AGL
broken clouds at 8000 feet AGL
overcast cloud deck at 11000 feet AGL
Weather: no significant weather observed at this time

METAR text: KBHM 190653Z 00000KT 10SM OVC040 17/16 A2959 RMK AO2 RAE21 TSE0557 SLP014 TS MOV E P0001 T01670161
Conditions at: KBHM (BIRMINGHAM , AL, US) observed 0653 UTC 19 April 2019
Temperature: 16.7°C (62°F)
Dewpoint: 16.1°C (61°F) [RH = 96%]
Pressure (altimeter): 29.59 inches Hg (1002.1 mb)
[Sea-level pressure: 1001.4 mb]
Winds: calm
Visibility: 10 or more miles (16+ km)
Ceiling: 4000 feet AGL
Clouds: overcast cloud deck at 4000 feet AGL
Weather: no significant weather observed at this time

METAR text: KBHM 190557Z 00000KT 9SM -RA SCT036 BKN045 OVC070 17/16 A2962 RMK AO2 TSE57 TS MOV E P0000 T01670161
Conditions at: KBHM (BIRMINGHAM , AL, US) observed 0557 UTC 19 April 2019
Temperature: 16.7°C (62°F)
Dewpoint: 16.1°C (61°F) [RH = 96%]
Pressure (altimeter): 29.62 inches Hg (1003.1 mb)
Winds: calm
Visibility: 9 miles (14 km)
Ceiling: 4500 feet AGL
Clouds: scattered clouds at 3600 feet AGL
broken clouds at 4500 feet AGL
overcast cloud deck at 7000 feet AGL
Weather: -RA  (light rain)

METAR text: KBHM 190553Z VRB03KT 8SM -TSRA BKN010 BKN033CB OVC040 17/16 A2962 RMK AO2 LTG DSNT E SLP023 OCNL LTGICCC SW-N TS SW-N MOV E P0064 60167 T01670161 10233 20167 402670167 58031
Conditions at: KBHM (BIRMINGHAM , AL, US) observed 0553 UTC 19 April 2019
Temperature: 16.7°C (62°F)
Dewpoint: 16.1°C (61°F) [RH = 96%]
Pressure (altimeter): 29.62 inches Hg (1003.1 mb)
[Sea-level pressure: 1002.3 mb]
Winds: variable direction winds at 3 MPH (3 knots; 1.5 m/s)
Visibility: 8 miles (13 km)
Ceiling: 1000 feet AGL
Clouds: broken clouds at 1000 feet AGL
broken clouds at 3300 feet AGL
overcast cloud deck at 4000 feet AGL
Weather: -TSRA  (light rain associated with thunderstorm(s))

METAR text: KBHM 190544Z 07004KT 5SM -TSRA BR BKN010 BKN033CB OVC040 17/16 A2962 RMK AO2 LTG DSNT E AND SE OCNL LTGICCC SW-N TS SW-N MOV E P0064 T01670161
Conditions at: KBHM (BIRMINGHAM , AL, US) observed 0544 UTC 19 April 2019
Temperature: 16.7°C (62°F)
Dewpoint: 16.1°C (61°F) [RH = 96%]
Pressure (altimeter): 29.62 inches Hg (1003.1 mb)
Winds: from the ENE (70 degrees) at 5 MPH (4 knots; 2.1 m/s)
Visibility: 5 miles ( 8 km)
Ceiling: 1000 feet AGL
Clouds: broken clouds at 1000 feet AGL
broken clouds at 3300 feet AGL
overcast cloud deck at 4000 feet AGL
Weather: -TSRA BR  (light rain associated with thunderstorm(s), mist)

METAR text: KBHM 190527Z 11007KT 2SM +TSRA BR BKN010 BKN033CB OVC040 17/16 A2964 RMK AO2 LTG DSNT ALQDS OCNL LTGICCC SW-N TS SW-N MOV E P0054 T01670161
Conditions at: KBHM (BIRMINGHAM , AL, US) observed 0527 UTC 19 April 2019
Temperature: 16.7°C (62°F)
Dewpoint: 16.1°C (61°F) [RH = 96%]
Pressure (altimeter): 29.64 inches Hg (1003.8 mb)
Winds: from the ESE (110 degrees) at 8 MPH (7 knots; 3.6 m/s)
Visibility: 2.00 miles (3.22 km)
Ceiling: 1000 feet AGL
Clouds: broken clouds at 1000 feet AGL
broken clouds at 3300 feet AGL
overcast cloud deck at 4000 feet AGL
Weather: +TSRA BR  (heavy rain associated with thunderstorm(s), mist)

METAR text: KBHM 190518Z 12006KT 3/4SM +TSRA BR BKN010 BKN033CB OVC040 17/16 A2964 RMK AO2 LTG DSNT N AND SE AND S OCNL LTGICCC SW-N TS SW-N MOV E P0040 T01670161 RVRNO
Conditions at: KBHM (BIRMINGHAM , AL, US) observed 0518 UTC 19 April 2019
Temperature: 16.7°C (62°F)
Dewpoint: 16.1°C (61°F) [RH = 96%]
Pressure (altimeter): 29.64 inches Hg (1003.8 mb)
Winds: from the ESE (120 degrees) at 7 MPH (6 knots; 3.1 m/s)
Visibility: 0.75 miles (1.21 km)
Ceiling: 1000 feet AGL
Clouds: broken clouds at 1000 feet AGL
broken clouds at 3300 feet AGL
overcast cloud deck at 4000 feet AGL
Weather: +TSRA BR  (heavy rain associated with thunderstorm(s), mist)

METAR text: KBHM 190509Z 00000KT 1 3/4SM +TSRA BR SCT022 BKN037CB OVC047 17/16 A2965 RMK AO2 LTG DSNT ALQDS OCNL LTGICCC SW-N TS SW-N MOV E P0008 T01670161
Conditions at: KBHM (BIRMINGHAM , AL, US) observed 0509 UTC 19 April 2019
Temperature: 16.7°C (62°F)
Dewpoint: 16.1°C (61°F) [RH = 96%]
Pressure (altimeter): 29.65 inches Hg (1004.1 mb)
Winds: calm
Visibility: 1.75 miles (2.82 km)
Ceiling: 3700 feet AGL
Clouds: scattered clouds at 2200 feet AGL
broken clouds at 3700 feet AGL
overcast cloud deck at 4700 feet AGL
Weather: +TSRA BR  (heavy rain associated with thunderstorm(s), mist)

METAR text: KBHM 190453Z 06004KT 4SM +TSRA BR BKN033 BKN041CB OVC049 17/16 A2963 RMK AO2 LTG DSNT ALQDS TSB21 SLP027 OCNL LTGICCC W-NW TS W-NW MOV E P0006 T01670161
Conditions at: KBHM (BIRMINGHAM , AL, US) observed 0453 UTC 19 April 2019
Temperature: 16.7°C (62°F)
Dewpoint: 16.1°C (61°F) [RH = 96%]
Pressure (altimeter): 29.63 inches Hg (1003.5 mb)
[Sea-level pressure: 1002.7 mb]
Winds: from the ENE (60 degrees) at 5 MPH (4 knots; 2.1 m/s)
Visibility: 4 miles ( 6 km)
Ceiling: 3300 feet AGL
Clouds: broken clouds at 3300 feet AGL
broken clouds at 4100 feet AGL
overcast cloud deck at 4900 feet AGL
Weather: +TSRA BR  (heavy rain associated with thunderstorm(s), mist)

METAR text: KBHM 190422Z 10005KT 9SM -TSRA BKN033 BKN041CB OVC049 17/16 A2966 RMK AO2 LTG DSNT W TSB21 PRESFR OCNL LTGICCC W-NW TS W-NW MOV E P0002 T01670161
Conditions at: KBHM (BIRMINGHAM , AL, US) observed 0422 UTC 19 April 2019
Temperature: 16.7°C (62°F)
Dewpoint: 16.1°C (61°F) [RH = 96%]
Pressure (altimeter): 29.66 inches Hg (1004.5 mb)
Winds: from the E (100 degrees) at 6 MPH (5 knots; 2.6 m/s)
Visibility: 9 miles (14 km)
Ceiling: 3300 feet AGL
Clouds: broken clouds at 3300 feet AGL
broken clouds at 4100 feet AGL
overcast cloud deck at 4900 feet AGL
Weather: -TSRA  (light rain associated with thunderstorm(s))

METAR text: KBHM 190400Z 00000KT 6SM -RA BR FEW007 SCT027 OVC036 17/16 A2970 RMK AO2 P0001 T01670161
Conditions at: KBHM (BIRMINGHAM , AL, US) observed 0400 UTC 19 April 2019
Temperature: 16.7°C (62°F)
Dewpoint: 16.1°C (61°F) [RH = 96%]
Pressure (altimeter): 29.70 inches Hg (1005.8 mb)
Winds: calm
Visibility: 6 miles (10 km)
Ceiling: 3600 feet AGL
Clouds: few clouds at 700 feet AGL
scattered clouds at 2700 feet AGL
overcast cloud deck at 3600 feet AGL
Weather: -RA BR  (light rain, mist)

METAR text: KBHM 190353Z 00000KT 2 1/2SM -RA BR SCT007 BKN030 OVC039 17/16 A2971 RMK AO2 TSE0254B0256E18 SLP055 TS MOV E P0016 T01670161
Conditions at: KBHM (BIRMINGHAM , AL, US) observed 0353 UTC 19 April 2019
Temperature: 16.7°C (62°F)
Dewpoint: 16.1°C (61°F) [RH = 96%]
Pressure (altimeter): 29.71 inches Hg (1006.2 mb)
[Sea-level pressure: 1005.5 mb]
Winds: calm
Visibility: 2.50 miles (4.02 km)
Ceiling: 3000 feet AGL
Clouds: scattered clouds at 700 feet AGL
broken clouds at 3000 feet AGL
overcast cloud deck at 3900 feet AGL
Weather: -RA BR  (light rain, mist)

METAR text: KBHM 190351Z 00000KT 2SM -RA BR OVC030 17/16 A2971 RMK AO2 TSE0254B0256E18 TS MOV E P0016
Conditions at: KBHM (BIRMINGHAM , AL, US) observed 0351 UTC 19 April 2019
Temperature: 17.0°C (63°F)
Dewpoint: 16.0°C (61°F) [RH = 94%]
Pressure (altimeter): 29.71 inches Hg (1006.2 mb)
Winds: calm
Visibility: 2.00 miles (3.22 km)
Ceiling: 3000 feet AGL
Clouds: overcast cloud deck at 3000 feet AGL
Weather: -RA BR  (light rain, mist)

METAR text: KBHM 190318Z 10005KT 8SM -RA FEW011 BKN033 OVC047 17/16 A2971 RMK AO2 LTG DSNT N-SE TSE0254B0256E18 TS MOV E P0009 T01670161
Conditions at: KBHM (BIRMINGHAM , AL, US) observed 0318 UTC 19 April 2019
Temperature: 16.7°C (62°F)
Dewpoint: 16.1°C (61°F) [RH = 96%]
Pressure (altimeter): 29.71 inches Hg (1006.2 mb)
Winds: from the E (100 degrees) at 6 MPH (5 knots; 2.6 m/s)
Visibility: 8 miles (13 km)
Ceiling: 3300 feet AGL
Clouds: few clouds at 1100 feet AGL
broken clouds at 3300 feet AGL
overcast cloud deck at 4700 feet AGL
Weather: -RA  (light rain)

METAR text: KBHM 190253Z 16005KT 6SM -TSRA BR OVC070CB 17/16 A2974 RMK AO2 RAE19B39 SLP064 OCNL LTGICCG N-E TS N-E MOV E P0014 60081 T01670156 50017
Conditions at: KBHM (BIRMINGHAM , AL, US) observed 0253 UTC 19 April 2019
Temperature: 16.7°C (62°F)
Dewpoint: 15.6°C (60°F) [RH = 93%]
Pressure (altimeter): 29.74 inches Hg (1007.2 mb)
[Sea-level pressure: 1006.4 mb]
Winds: from the SSE (160 degrees) at 6 MPH (5 knots; 2.6 m/s)
Visibility: 6 miles (10 km)
Ceiling: 7000 feet AGL
Clouds: overcast cloud deck at 7000 feet AGL
Weather: -TSRA BR  (light rain associated with thunderstorm(s), mist)

METAR text: KBHM 190153Z 28005KT 3SM +RA BR SCT015 BKN046 OVC070 17/16 A2975 RMK AO2 TSB18E33 SLP069 TS MOV E P0024 T01720156
Conditions at: KBHM (BIRMINGHAM , AL, US) observed 0153 UTC 19 April 2019
Temperature: 17.2°C (63°F)
Dewpoint: 15.6°C (60°F) [RH = 90%]
Pressure (altimeter): 29.75 inches Hg (1007.5 mb)
[Sea-level pressure: 1006.9 mb]
Winds: from the W (280 degrees) at 6 MPH (5 knots; 2.6 m/s)
Visibility: 3 miles ( 5 km)
Ceiling: 4600 feet AGL
Clouds: scattered clouds at 1500 feet AGL
broken clouds at 4600 feet AGL
overcast cloud deck at 7000 feet AGL
Weather: +RA BR  (heavy rain, mist)

METAR text: KBHM 190139Z 27007KT 4SM RA BR FEW014 BKN050 OVC075 17/16 A2975 RMK AO2 TSB18E33 TS MOV E P0017 T01720156
Conditions at: KBHM (BIRMINGHAM , AL, US) observed 0139 UTC 19 April 2019
Temperature: 17.2°C (63°F)
Dewpoint: 15.6°C (60°F) [RH = 90%]
Pressure (altimeter): 29.75 inches Hg (1007.5 mb)
Winds: from the W (270 degrees) at 8 MPH (7 knots; 3.6 m/s)
Visibility: 4 miles ( 6 km)
Ceiling: 5000 feet AGL
Clouds: few clouds at 1400 feet AGL
broken clouds at 5000 feet AGL
overcast cloud deck at 7500 feet AGL
Weather: RA BR  (moderate rain, mist)

METAR text: KBHM 190124Z 26009KT 5SM TSRA BR FEW021CB BKN075 OVC095 17/16 A2975 RMK AO2 LTG DSNT N AND SE TSB18 OCNL LTGIC E TS E MOV E P0010 T01720156
Conditions at: KBHM (BIRMINGHAM , AL, US) observed 0124 UTC 19 April 2019
Temperature: 17.2°C (63°F)
Dewpoint: 15.6°C (60°F) [RH = 90%]
Pressure (altimeter): 29.75 inches Hg (1007.5 mb)
Winds: from the W (260 degrees) at 10 MPH (9 knots; 4.6 m/s)
Visibility: 5 miles ( 8 km)
Ceiling: 7500 feet AGL
Clouds: few clouds at 2100 feet AGL
broken clouds at 7500 feet AGL
overcast cloud deck at 9500 feet AGL
Weather: TSRA BR  (rain associated with thunderstorm(s), mist)

METAR text: KBHM 190117Z 26015G24KT 6SM RA BR FEW021 BKN075 OVC095 18/16 A2975 RMK AO2 LTG DSNT ALQDS P0007 T01780156
Conditions at: KBHM (BIRMINGHAM , AL, US) observed 0117 UTC 19 April 2019
Temperature: 17.8°C (64°F)
Dewpoint: 15.6°C (60°F) [RH = 87%]
Pressure (altimeter): 29.75 inches Hg (1007.5 mb)
Winds: from the W (260 degrees) at 17 MPH (15 knots; 7.7 m/s)
gusting to 28 MPH (24 knots; 12.3 m/s)
Visibility: 6 miles (10 km)
Ceiling: 7500 feet AGL
Clouds: few clouds at 2100 feet AGL
broken clouds at 7500 feet AGL
overcast cloud deck at 9500 feet AGL
Weather: RA BR  (moderate rain, mist)

METAR text: KBHM 190053Z 22015G25KT 5SM RA BR FEW015 SCT021 OVC029 18/16 A2974 RMK AO2 PK WND 21038/0026 WSHFT 0016 LTG DSNT ALQDS TSE36 SLP067 P0043 T01780161
Conditions at: KBHM (BIRMINGHAM , AL, US) observed 0053 UTC 19 April 2019
Temperature: 17.8°C (64°F)
Dewpoint: 16.1°C (61°F) [RH = 90%]
Pressure (altimeter): 29.74 inches Hg (1007.2 mb)
[Sea-level pressure: 1006.7 mb]
Winds: from the SW (220 degrees) at 17 MPH (15 knots; 7.7 m/s)
gusting to 29 MPH (25 knots; 12.9 m/s)
Visibility: 5 miles ( 8 km)
Ceiling: 2900 feet AGL
Clouds: few clouds at 1500 feet AGL
scattered clouds at 2100 feet AGL
overcast cloud deck at 2900 feet AGL
Weather: RA BR  (moderate rain, mist)

METAR text: KBHM 190036Z 21020G28KT 4SM VCTS +RA BR FEW019 FEW027 OVC035 18/17 A2974 RMK AO2 PK WND 21038/0026 WSHFT 0016 LTG DSNT SE-W TSE36 P0037 T01780167
Conditions at: KBHM (BIRMINGHAM , AL, US) observed 0036 UTC 19 April 2019
Temperature: 17.8°C (64°F)
Dewpoint: 16.7°C (62°F) [RH = 93%]
Pressure (altimeter): 29.74 inches Hg (1007.2 mb)
Winds: from the SSW (210 degrees) at 23 MPH (20 knots; 10.3 m/s)
gusting to 32 MPH (28 knots; 14.4 m/s)
Visibility: 4 miles ( 6 km)
Ceiling: 3500 feet AGL
Clouds: few clouds at 1900 feet AGL
few clouds at 2700 feet AGL
overcast cloud deck at 3500 feet AGL
Weather: VCTS +RA BR  (thunderstorm in vicinity, heavy rain, mist)

METAR text: KBHM 190030Z 20018G38KT 2SM +RA BR BKN037 18/17 A2974 RMK AO2 PK WND 21038/0026 WSHFT 0016 TWR VIS 3 LTG DSNT S-W P0030 T01830167
Conditions at: KBHM (BIRMINGHAM , AL, US) observed 0030 UTC 19 April 2019
Temperature: 18.3°C (65°F)
Dewpoint: 16.7°C (62°F) [RH = 90%]
Pressure (altimeter): 29.74 inches Hg (1007.2 mb)
Winds: from the SSW (200 degrees) at 21 MPH (18 knots; 9.3 m/s)
gusting to 44 MPH (38 knots; 19.5 m/s)
Visibility: 2.00 miles (3.22 km)
Ceiling: 3700 feet AGL
Clouds: broken clouds at 3700 feet AGL
Weather: +RA BR  (heavy rain, mist)

METAR text: KBHM 182353Z 15011G17KT 10SM -RA SCT050 OVC065 23/15 A2969 RMK AO2 LTG DSNT W RAB51 SLP047 P0000 60000 T02330150 10267 20233 58025
Conditions at: KBHM (BIRMINGHAM , AL, US) observed 2353 UTC 18 April 2019
Temperature: 23.3°C (74°F)
Dewpoint: 15.0°C (59°F) [RH = 60%]
Pressure (altimeter): 29.69 inches Hg (1005.5 mb)
[Sea-level pressure: 1004.7 mb]
Winds: from the SSE (150 degrees) at 13 MPH (11 knots; 5.7 m/s)
gusting to 20 MPH (17 knots; 8.7 m/s)
Visibility: 10 or more miles (16+ km)
Ceiling: 6500 feet AGL
Clouds: scattered clouds at 5000 feet AGL
overcast cloud deck at 6500 feet AGL
Weather: -RA  (light rain)

METAR text: KBHM 182253Z 15009KT 10SM SCT050 OVC250 24/14 A2971 RMK AO2 SLP055 T02390144
Conditions at: KBHM (BIRMINGHAM , AL, US) observed 2253 UTC 18 April 2019
Temperature: 23.9°C (75°F)
Dewpoint: 14.4°C (58°F) [RH = 55%]
Pressure (altimeter): 29.71 inches Hg (1006.2 mb)
[Sea-level pressure: 1005.5 mb]
Winds: from the SSE (150 degrees) at 10 MPH (9 knots; 4.6 m/s)
Visibility: 10 or more miles (16+ km)
Ceiling: 25000 feet AGL
Clouds: scattered clouds at 5000 feet AGL
overcast cloud deck at 25000 feet AGL
Weather: no significant weather observed at this time

METAR text: KBHM 182153Z 15010G19KT 10SM SCT047 OVC250 24/14 A2975 RMK AO2 SLP066 T02440139
Conditions at: KBHM (BIRMINGHAM , AL, US) observed 2153 UTC 18 April 2019
Temperature: 24.4°C (76°F)
Dewpoint: 13.9°C (57°F) [RH = 52%]
Pressure (altimeter): 29.75 inches Hg (1007.5 mb)
[Sea-level pressure: 1006.6 mb]
Winds: from the SSE (150 degrees) at 12 MPH (10 knots; 5.1 m/s)
gusting to 22 MPH (19 knots; 9.8 m/s)
Visibility: 10 or more miles (16+ km)
Ceiling: 25000 feet AGL
Clouds: scattered clouds at 4700 feet AGL
overcast cloud deck at 25000 feet AGL
Weather: no significant weather observed at this time

METAR text: KBHM 182053Z 16013G21KT 10SM FEW050 SCT075 OVC250 26/14 A2977 RMK AO2 SLP072 T02560139 58035
Conditions at: KBHM (BIRMINGHAM , AL, US) observed 2053 UTC 18 April 2019
Temperature: 25.6°C (78°F)
Dewpoint: 13.9°C (57°F) [RH = 48%]
Pressure (altimeter): 29.77 inches Hg (1008.2 mb)
[Sea-level pressure: 1007.2 mb]
Winds: from the SSE (160 degrees) at 15 MPH (13 knots; 6.7 m/s)
gusting to 24 MPH (21 knots; 10.8 m/s)
Visibility: 10 or more miles (16+ km)
Ceiling: 25000 feet AGL
Clouds: few clouds at 5000 feet AGL
scattered clouds at 7500 feet AGL
overcast cloud deck at 25000 feet AGL
Weather: no significant weather observed at this time

METAR text: KBHM 181953Z 15013G20KT 10SM FEW045 BKN055 BKN070 BKN250 25/15 A2981 RMK AO2 SLP086 T02500150
Conditions at: KBHM (BIRMINGHAM , AL, US) observed 1953 UTC 18 April 2019
Temperature: 25.0°C (77°F)
Dewpoint: 15.0°C (59°F) [RH = 54%]
Pressure (altimeter): 29.81 inches Hg (1009.6 mb)
[Sea-level pressure: 1008.6 mb]
Winds: from the SSE (150 degrees) at 15 MPH (13 knots; 6.7 m/s)
gusting to 23 MPH (20 knots; 10.3 m/s)
Visibility: 10 or more miles (16+ km)
Ceiling: 5500 feet AGL
Clouds: few clouds at 4500 feet AGL
broken clouds at 5500 feet AGL
broken clouds at 7000 feet AGL
broken clouds at 25000 feet AGL
Weather: no significant weather observed at this time

METAR text: KBHM 181853Z 17013G20KT 10SM SCT045 BKN060 BKN250 25/14 A2983 RMK AO2 SLP094 T02500144
Conditions at: KBHM (BIRMINGHAM , AL, US) observed 1853 UTC 18 April 2019
Temperature: 25.0°C (77°F)
Dewpoint: 14.4°C (58°F) [RH = 52%]
Pressure (altimeter): 29.83 inches Hg (1010.2 mb)
[Sea-level pressure: 1009.4 mb]
Winds: from the S (170 degrees) at 15 MPH (13 knots; 6.7 m/s)
gusting to 23 MPH (20 knots; 10.3 m/s)
Visibility: 10 or more miles (16+ km)
Ceiling: 6000 feet AGL
Clouds: scattered clouds at 4500 feet AGL
broken clouds at 6000 feet AGL
broken clouds at 25000 feet AGL
Weather: no significant weather observed at this time

METAR text: KBHM 181753Z 17015G19KT 10SM FEW044 25/14 A2987 RMK AO2 SLP107 T02500144 10250 20183 58032
Conditions at: KBHM (BIRMINGHAM , AL, US) observed 1753 UTC 18 April 2019
Temperature: 25.0°C (77°F)
Dewpoint: 14.4°C (58°F) [RH = 52%]
Pressure (altimeter): 29.87 inches Hg (1011.6 mb)
[Sea-level pressure: 1010.7 mb]
Winds: from the S (170 degrees) at 17 MPH (15 knots; 7.7 m/s)
gusting to 22 MPH (19 knots; 9.8 m/s)
Visibility: 10 or more miles (16+ km)
Ceiling: at least 12,000 feet AGL
Clouds: few clouds at 4400 feet AGL
Weather: no significant weather observed at this time

METAR text: KBHM 181653Z 19011KT 10SM FEW038 SCT047 BKN250 24/16 A2992 RMK AO2 SLP124 T02390156
Conditions at: KBHM (BIRMINGHAM , AL, US) observed 1653 UTC 18 April 2019
Temperature: 23.9°C (75°F)
Dewpoint: 15.6°C (60°F) [RH = 60%]
Pressure (altimeter): 29.92 inches Hg (1013.3 mb)
[Sea-level pressure: 1012.4 mb]
Winds: from the S (190 degrees) at 13 MPH (11 knots; 5.7 m/s)
Visibility: 10 or more miles (16+ km)
Ceiling: 25000 feet AGL
Clouds: few clouds at 3800 feet AGL
scattered clouds at 4700 feet AGL
broken clouds at 25000 feet AGL
Weather: no significant weather observed at this time

METAR text: KBHM 181553Z 16010KT 10SM FEW033 SCT055 23/15 A2995 RMK AO2 SLP135 T02330150
Conditions at: KBHM (BIRMINGHAM , AL, US) observed 1553 UTC 18 April 2019
Temperature: 23.3°C (74°F)
Dewpoint: 15.0°C (59°F) [RH = 60%]
Pressure (altimeter): 29.95 inches Hg (1014.3 mb)
[Sea-level pressure: 1013.5 mb]
Winds: from the SSE (160 degrees) at 12 MPH (10 knots; 5.1 m/s)
Visibility: 10 or more miles (16+ km)
Ceiling: at least 12,000 feet AGL
Clouds: few clouds at 3300 feet AGL
scattered clouds at 5500 feet AGL
Weather: no significant weather observed at this time

METAR text: KBHM 181453Z 20017KT 10SM FEW023 FEW036 BKN250 23/16 A2997 RMK AO2 SLP140 T02280156 52004
Conditions at: KBHM (BIRMINGHAM , AL, US) observed 1453 UTC 18 April 2019
Temperature: 22.8°C (73°F)
Dewpoint: 15.6°C (60°F) [RH = 64%]
Pressure (altimeter): 29.97 inches Hg (1015.0 mb)
[Sea-level pressure: 1014.0 mb]
Winds: from the SSW (200 degrees) at 20 MPH (17 knots; 8.7 m/s)
Visibility: 10 or more miles (16+ km)
Ceiling: 25000 feet AGL
Clouds: few clouds at 2300 feet AGL
few clouds at 3600 feet AGL
broken clouds at 25000 feet AGL
Weather: no significant weather observed at this time

METAR text: KBHM 181353Z 18011KT 10SM BKN038 BKN045 BKN250 21/16 A2996 RMK AO2 SLP140 T02060156
Conditions at: KBHM (BIRMINGHAM , AL, US) observed 1353 UTC 18 April 2019
Temperature: 20.6°C (69°F)
Dewpoint: 15.6°C (60°F) [RH = 73%]
Pressure (altimeter): 29.96 inches Hg (1014.6 mb)
[Sea-level pressure: 1014.0 mb]
Winds: from the S (180 degrees) at 13 MPH (11 knots; 5.7 m/s)
Visibility: 10 or more miles (16+ km)
Ceiling: 3800 feet AGL
Clouds: broken clouds at 3800 feet AGL
broken clouds at 4500 feet AGL
broken clouds at 25000 feet AGL
Weather: no significant weather observed at this time

METAR text: KBHM 181253Z 15006KT 10SM BKN035 18/16 A2995 RMK AO2 SLP137 T01830156
Conditions at: KBHM (BIRMINGHAM , AL, US) observed 1253 UTC 18 April 2019
Temperature: 18.3°C (65°F)
Dewpoint: 15.6°C (60°F) [RH = 84%]
Pressure (altimeter): 29.95 inches Hg (1014.3 mb)
[Sea-level pressure: 1013.7 mb]
Winds: from the SSE (150 degrees) at 7 MPH (6 knots; 3.1 m/s)
Visibility: 10 or more miles (16+ km)
Ceiling: 3500 feet AGL
Clouds: broken clouds at 3500 feet AGL
Weather: no significant weather observed at this time

METAR text: KBHM 181236Z 15005KT 9SM SCT014 BKN038 18/16 A2995 RMK AO2 T01830156
Conditions at: KBHM (BIRMINGHAM , AL, US) observed 1236 UTC 18 April 2019
Temperature: 18.3°C (65°F)
Dewpoint: 15.6°C (60°F) [RH = 84%]
Pressure (altimeter): 29.95 inches Hg (1014.3 mb)
Winds: from the SSE (150 degrees) at 6 MPH (5 knots; 2.6 m/s)
Visibility: 9 miles (14 km)
Ceiling: 3800 feet AGL
Clouds: scattered clouds at 1400 feet AGL
broken clouds at 3800 feet AGL
Weather: no significant weather observed at this time

METAR text: KBHM 181153Z 19006KT 10SM OVC013 18/16 A2995 RMK AO2 SLP136 T01830156 10211 20172 53016
Conditions at: KBHM (BIRMINGHAM , AL, US) observed 1153 UTC 18 April 2019
Temperature: 18.3°C (65°F)
Dewpoint: 15.6°C (60°F) [RH = 84%]
Pressure (altimeter): 29.95 inches Hg (1014.3 mb)
[Sea-level pressure: 1013.6 mb]
Winds: from the S (190 degrees) at 7 MPH (6 knots; 3.1 m/s)
Visibility: 10 or more miles (16+ km)
Ceiling: 1300 feet AGL
Clouds: overcast cloud deck at 1300 feet AGL
Weather: no significant weather observed at this time

METAR text: KBHM 181146Z 20006KT 10SM OVC013 18/16 A2995 RMK AO2 T01780156
Conditions at: KBHM (BIRMINGHAM , AL, US) observed 1146 UTC 18 April 2019
Temperature: 17.8°C (64°F)
Dewpoint: 15.6°C (60°F) [RH = 87%]
Pressure (altimeter): 29.95 inches Hg (1014.3 mb)
Winds: from the SSW (200 degrees) at 7 MPH (6 knots; 3.1 m/s)
Visibility: 10 or more miles (16+ km)
Ceiling: 1300 feet AGL
Clouds: overcast cloud deck at 1300 feet AGL
Weather: no significant weather observed at this time

METAR text: KBHM 181132Z 18005KT 10SM BKN015 18/15 A2993 RMK AO2 T01780150
Conditions at: KBHM (BIRMINGHAM , AL, US) observed 1132 UTC 18 April 2019
Temperature: 17.8°C (64°F)
Dewpoint: 15.0°C (59°F) [RH = 84%]
Pressure (altimeter): 29.93 inches Hg (1013.6 mb)
Winds: from the S (180 degrees) at 6 MPH (5 knots; 2.6 m/s)
Visibility: 10 or more miles (16+ km)
Ceiling: 1500 feet AGL
Clouds: broken clouds at 1500 feet AGL
Weather: no significant weather observed at this time

METAR text: KBHM 181053Z 17005KT 10SM SCT250 18/14 A2991 RMK AO2 SLP122 T01780144
Conditions at: KBHM (BIRMINGHAM , AL, US) observed 1053 UTC 18 April 2019
Temperature: 17.8°C (64°F)
Dewpoint: 14.4°C (58°F) [RH = 80%]
Pressure (altimeter): 29.91 inches Hg (1013.0 mb)
[Sea-level pressure: 1012.2 mb]
Winds: from the S (170 degrees) at 6 MPH (5 knots; 2.6 m/s)
Visibility: 10 or more miles (16+ km)
Ceiling: at least 12,000 feet AGL
Clouds: scattered clouds at 25000 feet AGL
Weather: no significant weather observed at this time

METAR text: KBHM 180953Z 16005KT 10SM BKN250 19/13 A2989 RMK AO2 SLP116 T01890133
Conditions at: KBHM (BIRMINGHAM , AL, US) observed 0953 UTC 18 April 2019
Temperature: 18.9°C (66°F)
Dewpoint: 13.3°C (56°F) [RH = 70%]
Pressure (altimeter): 29.89 inches Hg (1012.3 mb)
[Sea-level pressure: 1011.6 mb]
Winds: from the SSE (160 degrees) at 6 MPH (5 knots; 2.6 m/s)
Visibility: 10 or more miles (16+ km)
Ceiling: 25000 feet AGL
Clouds: broken clouds at 25000 feet AGL
Weather: no significant weather observed at this time

METAR text: KBHM 180853Z 18007KT 10SM BKN250 19/14 A2991 RMK AO2 SLP119 T01940139 55016
Conditions at: KBHM (BIRMINGHAM , AL, US) observed 0853 UTC 18 April 2019
Temperature: 19.4°C (67°F)
Dewpoint: 13.9°C (57°F) [RH = 71%]
Pressure (altimeter): 29.91 inches Hg (1013.0 mb)
[Sea-level pressure: 1011.9 mb]
Winds: from the S (180 degrees) at 8 MPH (7 knots; 3.6 m/s)
Visibility: 10 or more miles (16+ km)
Ceiling: 25000 feet AGL
Clouds: broken clouds at 25000 feet AGL
Weather: no significant weather observed at this time

METAR text: KBHM 180753Z 17008KT 10SM BKN250 19/14 A2990 RMK AO2 SLP118 T01940144
Conditions at: KBHM (BIRMINGHAM , AL, US) observed 0753 UTC 18 April 2019
Temperature: 19.4°C (67°F)
Dewpoint: 14.4°C (58°F) [RH = 73%]
Pressure (altimeter): 29.90 inches Hg (1012.6 mb)
[Sea-level pressure: 1011.8 mb]
Winds: from the S (170 degrees) at 9 MPH (8 knots; 4.1 m/s)
Visibility: 10 or more miles (16+ km)
Ceiling: 25000 feet AGL
Clouds: broken clouds at 25000 feet AGL
Weather: no significant weather observed at this time

METAR text: KBHM 180653Z 16007KT 10SM OVC250 20/14 A2993 RMK AO2 SLP126 T02000144
Conditions at: KBHM (BIRMINGHAM , AL, US) observed 0653 UTC 18 April 2019
Temperature: 20.0°C (68°F)
Dewpoint: 14.4°C (58°F) [RH = 70%]
Pressure (altimeter): 29.93 inches Hg (1013.6 mb)
[Sea-level pressure: 1012.6 mb]
Winds: from the SSE (160 degrees) at 8 MPH (7 knots; 3.6 m/s)
Visibility: 10 or more miles (16+ km)
Ceiling: 25000 feet AGL
Clouds: overcast cloud deck at 25000 feet AGL
Weather: no significant weather observed at this time

Forecast for: KBHM (BIRMINGHAM , AL, US)
Text: KBHM 191741Z 1918/2018 27013G22KT P6SM -SHRA BKN015 OVC022
Forecast period: 1800 to 2100 UTC 19 April 2019
Forecast type: FROM: standard forecast or significant change
Winds: from the W (270 degrees) at 15 MPH (13 knots; 6.7 m/s)
gusting to 25 MPH (22 knots; 11.3 m/s)
Visibility: 6 or more miles 10+ km)
Ceiling: 1500 feet AGL
Clouds: broken clouds at 1500 feet AGL
overcast cloud deck at 2200 feet AGL
Weather: -SHRA  (light rain showers)
Text: FM192100 27016G28KT 5SM -SHRA BKN015 OVC025
Forecast period: 2100 UTC 19 April 2019 to 0400 UTC 20 April 2019
Forecast type: FROM: standard forecast or significant change
Winds: from the W (270 degrees) at 18 MPH (16 knots; 8.2 m/s)
gusting to 32 MPH (28 knots; 14.4 m/s)
Visibility: 5 miles (8 km)
Ceiling: 1500 feet AGL
Clouds: broken clouds at 1500 feet AGL
overcast cloud deck at 2500 feet AGL
Weather: -SHRA  (light rain showers)
Text: FM200400 25012KT P6SM VCSH OVC007
Forecast period: 0400 to 1300 UTC 20 April 2019
Forecast type: FROM: standard forecast or significant change
Winds: from the WSW (250 degrees) at 14 MPH (12 knots; 6.2 m/s)
Visibility: 6 or more miles 10+ km)
Ceiling: 700 feet AGL
Clouds: overcast cloud deck at 700 feet AGL
Weather: VCSH  (showers in vicinity)
Text: FM201300 26009G18KT P6SM BKN025
Forecast period: 1300 to 1800 UTC 20 April 2019
Forecast type: FROM: standard forecast or significant change
Winds: from the W (260 degrees) at 10 MPH (9 knots; 4.6 m/s)
gusting to 21 MPH (18 knots; 9.3 m/s)
Visibility: 6 or more miles 10+ km)
Ceiling: 2500 feet AGL
Clouds: broken clouds at 2500 feet AGL
Weather: no significant weather forecast for this period